ADDS METAR Data INFO
IDs: Format: Raw Decoded Include TAF

Data at: 0039 UTC 21 Jan 2018

METAR for:KDAY (Dayton/Cox Intl, OH, US)
Text:KDAY 202356Z 20007KT 10SM OVC025 06/02 A3008 RMK AO2 SLP195 T00610017 10072 20050 51011
Temperature: 6.1°C ( 43°F)
Dewpoint: 1.7°C ( 35°F) [RH = 73%]
Pressure (altimeter):30.08 inches Hg (1018.7 mb) [Sea level pressure: 1019.5 mb]
Winds:from the SSW (200 degrees) at 8 MPH (7 knots; 3.6 m/s)
Visibility:10 or more sm (16+ km)
Ceiling:2500 feet AGL
Clouds: overcast cloud deck at 2500 feet AGL